createdAt,value
2018-08-31T00:01:35.405Z,14.4
2018-08-31T00:02:06.029Z,14.4
2018-08-31T00:02:36.330Z,14.4
2018-08-31T00:03:06.954Z,14.4
2018-08-31T00:05:32.232Z,14.3
2018-08-31T00:06:31.550Z,14.3
2018-08-31T00:07:30.870Z,14.3
2018-08-31T00:08:30.180Z,14.3
2018-08-31T00:09:29.492Z,14.3
2018-08-31T00:11:27.983Z,14.3
2018-08-31T00:12:27.201Z,14.3
2018-08-31T00:15:25.068Z,14.3
2018-08-31T00:16:24.267Z,14.3
2018-08-31T00:17:23.462Z,14.2
2018-08-31T00:18:22.881Z,14.2
2018-08-31T00:19:22.196Z,14.2
2018-08-31T00:20:21.506Z,14.2
2018-08-31T00:21:20.825Z,14.2
2018-08-31T00:22:20.025Z,14.2
2018-08-31T00:23:19.016Z,14.2
2018-08-31T00:27:16.489Z,14.2
2018-08-31T00:28:15.407Z,14.1
2018-08-31T00:29:14.712Z,14.1
2018-08-31T00:30:14.064Z,14.1
2018-08-31T00:31:13.374Z,14.1
2018-08-31T00:33:11.850Z,14.1
2018-08-31T00:35:10.537Z,14.1
2018-08-31T00:36:09.737Z,14.1
2018-08-31T00:37:09.045Z,14.1
2018-08-31T00:38:08.242Z,14.1
2018-08-31T00:39:07.362Z,14.1
2018-08-31T00:40:06.554Z,14.1
2018-08-31T00:42:05.154Z,14
2018-08-31T00:43:04.458Z,14
2018-08-31T00:45:03.043Z,14
2018-08-31T00:46:02.248Z,14
2018-08-31T00:47:01.457Z,13.9
2018-08-31T00:49:00.270Z,13.9
2018-08-31T00:50:58.578Z,13.9
2018-08-31T00:51:58.001Z,13.9
2018-08-31T00:53:56.191Z,13.8
2018-08-31T00:54:55.504Z,13.9
2018-08-31T00:56:54.209Z,13.8
2018-08-31T00:57:53.648Z,13.8
2018-08-31T00:58:52.715Z,13.8
2018-08-31T00:59:23.233Z,13.8
2018-08-31T01:01:50.621Z,13.8
2018-08-31T01:03:49.109Z,13.8
2018-08-31T01:04:48.524Z,13.8
2018-08-31T01:05:47.621Z,13.8
2018-08-31T01:06:46.823Z,13.8
2018-08-31T01:07:45.921Z,13.8
2018-08-31T01:09:44.672Z,13.8
2018-08-31T01:11:42.757Z,13.8
2018-08-31T01:12:42.459Z,13.8
2018-08-31T01:14:40.540Z,13.8
2018-08-31T01:16:39.141Z,13.7
2018-08-31T01:17:38.554Z,13.7
2018-08-31T01:18:37.859Z,13.7
2018-08-31T01:20:36.551Z,13.7
2018-08-31T01:21:35.646Z,13.6
2018-08-31T01:23:34.339Z,13.6
2018-08-31T01:24:33.651Z,13.6
2018-08-31T01:25:32.733Z,13.6
2018-08-31T01:26:31.553Z,13.6
2018-08-31T01:27:31.152Z,13.6
2018-08-31T01:28:30.462Z,13.6
2018-08-31T01:29:29.769Z,13.6
2018-08-31T01:30:29.077Z,13.6
2018-08-31T01:31:28.283Z,13.6
2018-08-31T01:32:27.193Z,13.6
2018-08-31T01:35:25.408Z,13.5
2018-08-31T01:36:24.209Z,13.5
2018-08-31T01:37:23.516Z,13.5
2018-08-31T01:40:19.977Z,13.5
2018-08-31T01:41:20.378Z,13.5
2018-08-31T01:41:51.016Z,13.5
2018-08-31T01:42:21.652Z,13.5
2018-08-31T01:44:18.236Z,13.5
2018-08-31T01:45:17.551Z,13.5
2018-08-31T01:46:16.865Z,13.5
2018-08-31T01:48:15.474Z,13.5
2018-08-31T01:49:14.813Z,13.5
2018-08-31T01:50:14.023Z,13.5
2018-08-31T01:50:44.248Z,13.5
2018-08-31T01:51:14.827Z,13.5
2018-08-31T01:51:45.468Z,13.5
2018-08-31T01:52:15.715Z,13.5
2018-08-31T01:52:46.412Z,13.5
2018-08-31T01:54:10.936Z,13.5
2018-08-31T01:57:08.514Z,13.5
2018-08-31T01:58:07.832Z,13.5
2018-08-31T01:59:07.158Z,13.5
2018-08-31T02:00:06.373Z,13.4
2018-08-31T02:02:04.972Z,13.4
2018-08-31T02:03:04.196Z,13.4
2018-08-31T02:04:03.394Z,13.4
2018-08-31T02:05:02.465Z,13.4
2018-08-31T02:06:02.070Z,13.4
2018-08-31T02:07:01.396Z,13.4
2018-08-31T02:08:00.110Z,13.4
2018-08-31T02:08:59.551Z,13.4
2018-08-31T02:09:58.759Z,13.4
2018-08-31T02:10:57.867Z,13.4
2018-08-31T02:11:57.184Z,13.4
2018-08-31T02:12:56.899Z,13.4
2018-08-31T02:13:55.702Z,13.4
2018-08-31T02:15:54.201Z,13.3
2018-08-31T02:16:53.399Z,13.3
2018-08-31T02:18:52.110Z,13.3
2018-08-31T02:19:51.320Z,13.3
2018-08-31T02:20:21.945Z,13.3
2018-08-31T02:20:52.567Z,13.3
2018-08-31T02:21:23.217Z,13.3
2018-08-31T02:21:53.849Z,13.3
2018-08-31T02:22:24.376Z,13.3
2018-08-31T02:22:55.012Z,13.3
2018-08-31T02:23:25.252Z,13.3
2018-08-31T02:24:47.830Z,13.3
2018-08-31T02:25:46.638Z,13.3
2018-08-31T02:26:45.742Z,13.3
2018-08-31T02:27:45.568Z,13.2
2018-08-31T02:28:44.272Z,13.2
2018-08-31T02:29:43.787Z,13.2
2018-08-31T02:30:43.002Z,13.2
2018-08-31T02:31:42.428Z,13.2
2018-08-31T02:32:13.064Z,13.2
2018-08-31T02:32:43.710Z,13.2
2018-08-31T02:33:14.348Z,13.2
2018-08-31T02:33:44.483Z,13.2
2018-08-31T02:34:15.006Z,13.2
2018-08-31T02:34:45.534Z,13.2
2018-08-31T02:36:38.496Z,13.3
2018-08-31T02:37:37.920Z,13.3
2018-08-31T02:38:37.241Z,13.2
2018-08-31T02:39:36.499Z,13.2
2018-08-31T02:40:35.336Z,13.2
2018-08-31T02:44:32.312Z,13.2
2018-08-31T02:45:31.622Z,13.2
2018-08-31T02:46:30.957Z,13.1
2018-08-31T02:48:29.544Z,13.1
2018-08-31T02:49:28.454Z,13.1
2018-08-31T02:50:27.767Z,13.1
2018-08-31T02:51:26.979Z,13
2018-08-31T02:52:26.663Z,13
2018-08-31T02:53:25.486Z,13
2018-08-31T02:55:23.967Z,13
2018-08-31T02:56:23.391Z,13
2018-08-31T02:57:22.704Z,13
2018-08-31T02:58:21.914Z,13
2018-08-31T02:59:21.232Z,13
2018-08-31T03:00:20.034Z,13
2018-08-31T03:01:19.342Z,13
2018-08-31T03:02:18.807Z,12.9
2018-08-31T03:03:18.243Z,12.9
2018-08-31T03:04:17.157Z,12.9
2018-08-31T03:05:16.382Z,12.9
2018-08-31T03:06:15.802Z,12.9
2018-08-31T03:07:14.717Z,12.9
2018-08-31T03:08:14.031Z,12.9
2018-08-31T03:09:13.344Z,12.9
2018-08-31T03:10:12.544Z,12.9
2018-08-31T03:11:11.961Z,12.8
2018-08-31T03:12:11.283Z,12.8
2018-08-31T03:13:10.485Z,12.8
2018-08-31T03:14:09.695Z,12.8
2018-08-31T03:15:08.494Z,12.8
2018-08-31T03:17:07.297Z,12.8
2018-08-31T03:18:06.397Z,12.8
2018-08-31T03:18:36.908Z,12.8
2018-08-31T03:19:07.429Z,12.8
2018-08-31T03:19:37.680Z,12.8
2018-08-31T03:20:08.313Z,12.8
2018-08-31T03:23:02.768Z,12.8
2018-08-31T03:24:01.971Z,12.8
2018-08-31T03:25:00.960Z,12.7
2018-08-31T03:26:59.556Z,12.7
2018-08-31T03:27:58.979Z,12.7
2018-08-31T03:28:29.493Z,12.7
2018-08-31T03:29:00.127Z,12.7
2018-08-31T03:29:30.654Z,12.7
2018-08-31T03:30:56.752Z,12.7
2018-08-31T03:31:55.460Z,12.8
2018-08-31T03:32:54.774Z,12.8
2018-08-31T03:33:54.189Z,12.7
2018-08-31T03:34:53.498Z,12.7
2018-08-31T03:36:51.681Z,12.7
2018-08-31T03:37:50.930Z,12.7
2018-08-31T03:38:50.253Z,12.6
2018-08-31T03:39:49.564Z,12.6
2018-08-31T03:40:48.891Z,12.6
2018-08-31T03:41:48.106Z,12.6
2018-08-31T03:42:47.205Z,12.6
2018-08-31T03:45:45.183Z,12.6
2018-08-31T03:46:43.888Z,12.6
2018-08-31T03:47:43.316Z,12.6
2018-08-31T03:48:42.420Z,12.6
2018-08-31T03:49:41.740Z,12.5
2018-08-31T03:50:40.950Z,12.5
2018-08-31T03:51:40.266Z,12.5
2018-08-31T03:52:39.468Z,12.5
2018-08-31T03:53:38.828Z,12.5
2018-08-31T03:55:37.520Z,12.5
2018-08-31T03:58:35.106Z,12.5
2018-08-31T03:59:05.246Z,12.5
2018-08-31T03:59:35.778Z,12.5
2018-08-31T04:00:06.507Z,12.5
2018-08-31T04:01:32.493Z,12.5
2018-08-31T04:02:31.904Z,12.5
2018-08-31T04:04:30.213Z,12.5
2018-08-31T04:05:29.422Z,12.5
2018-08-31T04:06:28.734Z,12.5
2018-08-31T04:07:28.054Z,12.5
2018-08-31T04:07:58.288Z,12.5
2018-08-31T04:08:28.710Z,12.5
2018-08-31T04:08:58.960Z,12.5
2018-08-31T04:09:29.482Z,12.5
2018-08-31T04:09:59.993Z,12.5
2018-08-31T04:10:30.607Z,12.4
2018-08-31T04:11:01.126Z,12.4
2018-08-31T04:13:23.275Z,12.4
2018-08-31T04:14:22.599Z,12.5
2018-08-31T04:15:21.809Z,12.5
2018-08-31T04:16:21.129Z,12.4
2018-08-31T04:17:19.952Z,12.5
2018-08-31T04:18:19.278Z,12.5
2018-08-31T04:19:18.704Z,12.5
2018-08-31T04:20:18.020Z,12.5
2018-08-31T04:21:16.934Z,12.5
2018-08-31T04:25:13.804Z,12.5
2018-08-31T04:27:12.182Z,12.5
2018-08-31T04:28:11.546Z,12.5
2018-08-31T04:29:10.857Z,12.5
2018-08-31T04:30:10.177Z,12.4
2018-08-31T04:32:08.775Z,12.4
2018-08-31T04:33:07.588Z,12.4
2018-08-31T04:34:06.969Z,12.4
2018-08-31T04:35:06.280Z,12.4
2018-08-31T04:36:05.498Z,12.4
2018-08-31T04:42:00.541Z,12.5
2018-08-31T04:45:57.511Z,12.5
2018-08-31T04:46:56.821Z,12.5
2018-08-31T04:47:56.149Z,12.5
2018-08-31T04:49:54.458Z,12.5
2018-08-31T04:50:25.351Z,12.5
2018-08-31T04:50:55.653Z,12.6
2018-08-31T04:51:26.181Z,12.6
2018-08-31T04:52:52.071Z,12.6
2018-08-31T04:53:51.380Z,12.6
2018-08-31T04:55:50.196Z,12.6
2018-08-31T04:56:49.023Z,12.6
2018-08-31T04:59:46.610Z,12.6
2018-08-31T05:04:43.127Z,12.7
2018-08-31T05:15:34.396Z,12.8
2018-08-31T05:16:33.816Z,12.8
2018-08-31T05:18:32.195Z,12.8
2018-08-31T05:22:28.885Z,12.8
2018-08-31T05:25:26.690Z,12.9
2018-08-31T05:26:25.897Z,12.9
2018-08-31T05:27:24.996Z,12.9
2018-08-31T05:30:22.964Z,12.9
2018-08-31T05:31:21.667Z,12.9
2018-08-31T05:32:21.115Z,12.9
2018-08-31T05:34:19.712Z,12.9
2018-08-31T05:36:17.801Z,13
2018-08-31T05:36:48.316Z,13
2018-08-31T05:37:18.541Z,13
2018-08-31T05:38:16.742Z,13
2018-08-31T05:39:15.687Z,13
2018-08-31T05:40:14.996Z,13
2018-08-31T05:42:13.194Z,13.1
2018-08-31T05:43:12.499Z,13.1
2018-08-31T05:44:11.994Z,13.1
2018-08-31T05:46:10.081Z,13.2
2018-08-31T05:49:08.056Z,13.2
2018-08-31T05:51:06.356Z,13.2
2018-08-31T05:52:05.562Z,13.2
2018-08-31T05:53:04.979Z,13.3
2018-08-31T05:56:02.672Z,13.4
2018-08-31T05:57:01.870Z,13.4
2018-08-31T05:58:01.078Z,13.5
2018-08-31T05:59:00.405Z,13.5
2018-08-31T06:00:58.707Z,13.5
2018-08-31T06:01:58.148Z,13.5
2018-08-31T06:02:57.267Z,13.6
2018-08-31T06:04:55.478Z,13.6
2018-08-31T06:05:54.790Z,13.6
2018-08-31T06:06:54.107Z,13.7
2018-08-31T06:07:53.317Z,13.7
2018-08-31T06:08:52.636Z,13.6
2018-08-31T06:10:51.124Z,13.7
2018-08-31T06:11:50.340Z,13.7
2018-08-31T06:12:49.541Z,13.7
2018-08-31T06:14:48.250Z,13.7
2018-08-31T06:15:46.959Z,13.7
2018-08-31T06:16:17.373Z,13.7
2018-08-31T06:17:45.873Z,13.7
2018-08-31T06:18:16.387Z,13.7
2018-08-31T06:22:41.829Z,13.8
2018-08-31T06:23:41.145Z,13.9
2018-08-31T06:25:39.735Z,13.9
2018-08-31T06:26:39.151Z,13.9
2018-08-31T06:27:10.074Z,13.9
2018-08-31T06:27:40.107Z,13.9
2018-08-31T06:28:10.744Z,13.9
2018-08-31T06:28:41.275Z,13.9
2018-08-31T06:29:11.906Z,13.9
2018-08-31T06:33:33.942Z,14
2018-08-31T06:34:32.537Z,14
2018-08-31T06:35:31.971Z,14
2018-08-31T06:36:31.295Z,14
2018-08-31T06:37:30.715Z,14.1
2018-08-31T06:38:30.158Z,14
2018-08-31T06:40:28.147Z,14
2018-08-31T06:41:27.449Z,14
2018-08-31T06:42:26.647Z,14
2018-08-31T06:43:26.258Z,14
2018-08-31T06:44:25.361Z,14
2018-08-31T06:45:24.487Z,14.1
2018-08-31T06:46:23.586Z,14
2018-08-31T06:47:22.792Z,14.1
2018-08-31T06:48:22.225Z,14.1
2018-08-31T06:49:21.538Z,14.1
2018-08-31T06:50:20.956Z,14.1
2018-08-31T06:51:20.192Z,14.1
2018-08-31T06:52:19.132Z,14.1
2018-08-31T06:53:18.551Z,14.1
2018-08-31T06:54:17.967Z,14.1
2018-08-31T06:56:15.947Z,14.2
2018-08-31T06:57:15.559Z,14.2
2018-08-31T07:02:12.017Z,14.2
2018-08-31T07:03:10.609Z,14.2
2018-08-31T07:04:10.426Z,14.3
2018-08-31T07:06:08.733Z,14.3
2018-08-31T07:07:07.961Z,14.3
2018-08-31T07:11:05.234Z,14.3
2018-08-31T07:12:04.145Z,14.3
2018-08-31T07:16:01.027Z,14.4
2018-08-31T07:17:00.634Z,14.4
2018-08-31T07:26:53.421Z,14.5
2018-08-31T07:27:52.136Z,14.5
2018-08-31T07:30:50.012Z,14.5
2018-08-31T07:34:46.987Z,14.6
2018-08-31T07:48:36.617Z,14.9
2018-08-31T07:51:34.201Z,15
2018-08-31T07:55:31.786Z,15
2018-08-31T08:00:28.042Z,15.1
2018-08-31T08:09:21.453Z,15.1
2018-08-31T08:12:19.167Z,15
2018-08-31T08:13:18.369Z,15
2018-08-31T08:16:16.352Z,15
2018-08-31T08:34:03.245Z,15.4
2018-08-31T08:38:00.319Z,15.5
2018-08-31T08:38:59.537Z,15.6
2018-08-31T08:40:57.759Z,15.6
2018-08-31T08:44:55.341Z,15.7
2018-08-31T08:47:53.047Z,15.6
2018-08-31T08:48:23.277Z,15.6
2018-08-31T08:50:50.687Z,15.4
2018-08-31T09:06:39.312Z,15.8
2018-08-31T09:48:09.560Z,16.5
2018-08-31T09:57:02.868Z,16.5
2018-08-31T10:02:59.024Z,16.7
2018-08-31T10:03:58.340Z,16.7
2018-08-31T10:04:57.760Z,16.8
2018-08-31T10:05:56.863Z,16.8
2018-08-31T10:18:48.051Z,17.1
2018-08-31T10:22:44.770Z,17.1
2018-08-31T10:37:34.503Z,17.5
2018-08-31T10:45:29.084Z,17.2
2018-08-31T11:00:18.817Z,17.5
2018-08-31T11:05:15.484Z,17.8
2018-08-31T12:23:23.530Z,19.6
2018-08-31T13:20:48.133Z,20.9
2018-08-31T13:33:40.492Z,20.8
2018-08-31T13:35:39.196Z,20.8
2018-08-31T13:36:38.507Z,20.8
2018-08-31T13:37:38.330Z,20.9
2018-08-31T13:39:37.037Z,20.9
2018-08-31T13:40:36.357Z,21
2018-08-31T13:41:35.968Z,21.3
2018-08-31T13:42:35.274Z,21
2018-08-31T13:44:33.767Z,20.2
2018-08-31T13:46:32.964Z,20.3
2018-08-31T13:47:32.576Z,20.5
2018-08-31T13:48:31.784Z,20.8
2018-08-31T13:50:30.491Z,20.6
2018-08-31T13:51:29.812Z,20.8
2018-08-31T13:52:29.375Z,20.9
2018-08-31T13:53:28.803Z,20.8
2018-08-31T13:54:28.292Z,20.9
2018-08-31T13:55:27.717Z,20.9
2018-08-31T13:55:57.940Z,20.9
2018-08-31T13:57:26.542Z,21.1
2018-08-31T13:57:57.168Z,21.1
2018-08-31T13:58:27.983Z,21.2
2018-08-31T13:58:57.841Z,21.2
2018-08-31T13:59:28.480Z,21.5
2018-08-31T13:59:58.712Z,21.5
2018-08-31T14:01:23.982Z,21.3
2018-08-31T14:04:22.701Z,20.9
2018-08-31T14:05:22.134Z,21
2018-08-31T14:06:21.445Z,21.1
2018-08-31T14:08:20.429Z,21
2018-08-31T14:09:19.551Z,20.9
2018-08-31T14:10:19.262Z,20.9
2018-08-31T14:11:18.868Z,20.9
2018-08-31T14:13:17.571Z,21
2018-08-31T14:17:15.342Z,20.1
2018-08-31T14:21:13.236Z,20
2018-08-31T14:31:07.323Z,19.9
2018-08-31T14:38:02.748Z,20.3
2018-08-31T14:45:58.180Z,20.1
2018-08-31T14:46:58.102Z,20.2
2018-08-31T14:47:57.411Z,20.4
2018-08-31T14:51:54.685Z,20.3
2018-08-31T15:04:47.258Z,20.2
2018-08-31T15:08:45.041Z,20.1
2018-08-31T15:09:44.494Z,20.2
2018-08-31T15:10:43.909Z,20.2
2018-08-31T15:13:41.890Z,20.1
2018-08-31T15:16:40.594Z,20.1
2018-08-31T15:19:38.684Z,20.3
2018-08-31T15:20:38.121Z,20.3
2018-08-31T15:22:36.924Z,20.4
2018-08-31T15:23:36.744Z,20.3
2018-08-31T15:24:35.706Z,20.2
2018-08-31T15:25:35.365Z,20.1
2018-08-31T15:27:33.982Z,20
2018-08-31T15:28:33.298Z,19.8
2018-08-31T15:29:32.725Z,19.8
2018-08-31T15:30:32.033Z,19.8
2018-08-31T15:31:31.943Z,19.7
2018-08-31T15:32:30.902Z,19.7
2018-08-31T15:33:30.216Z,19.6
2018-08-31T15:34:29.537Z,19.6
2018-08-31T15:35:29.254Z,19.6
2018-08-31T15:37:27.951Z,19.6
2018-08-31T15:37:58.572Z,19.6
2018-08-31T15:38:28.800Z,19.6
2018-08-31T15:38:58.823Z,19.6
2018-08-31T15:39:29.448Z,19.6
2018-08-31T15:40:00.073Z,19.6
2018-08-31T15:41:25.447Z,19.5
2018-08-31T15:42:24.869Z,19.5
2018-08-31T15:44:23.572Z,19.4
2018-08-31T15:45:23.385Z,19.4
2018-08-31T15:49:20.651Z,19.3
2018-08-31T15:50:19.961Z,19.4
2018-08-31T15:51:19.338Z,19.4
2018-08-31T15:53:18.330Z,19.5
2018-08-31T15:55:17.145Z,19.4
2018-08-31T15:56:16.381Z,19.5
2018-08-31T15:57:15.875Z,19.5
2018-08-31T15:58:15.304Z,19.5
2018-08-31T15:59:14.408Z,19.5
2018-08-31T16:00:14.111Z,19.5
2018-08-31T16:01:13.319Z,19.5
2018-08-31T16:03:11.910Z,19.5
2018-08-31T16:04:11.333Z,19.6
2018-08-31T16:05:10.936Z,19.6
2018-08-31T16:06:10.371Z,19.6
2018-08-31T16:07:09.367Z,19.6
2018-08-31T16:08:09.184Z,19.5
2018-08-31T16:09:08.076Z,19.5
2018-08-31T16:10:07.476Z,19.5
2018-08-31T16:13:05.964Z,19.5
2018-08-31T16:14:05.166Z,19.5
2018-08-31T16:15:04.594Z,19.5
2018-08-31T16:16:04.311Z,19.5
2018-08-31T16:17:03.406Z,19.5
2018-08-31T16:19:02.460Z,19.5
2018-08-31T16:19:32.723Z,19.5
2018-08-31T16:20:03.350Z,19.5
2018-08-31T16:20:33.872Z,19.5
2018-08-31T16:21:04.394Z,19.5
2018-08-31T16:21:35.023Z,19.5
2018-08-31T16:22:05.251Z,19.5
2018-08-31T16:22:35.772Z,19.5
2018-08-31T16:23:59.036Z,19.6
2018-08-31T16:24:58.861Z,19.5
2018-08-31T16:25:57.670Z,19.5
2018-08-31T16:26:57.277Z,19.5
2018-08-31T16:27:56.990Z,19.5
2018-08-31T16:28:56.518Z,19.4
2018-08-31T16:29:55.234Z,19.4
2018-08-31T16:30:25.648Z,19.4
2018-08-31T16:30:56.376Z,19.4
2018-08-31T16:31:26.782Z,19.4
2018-08-31T16:31:57.408Z,19.4
2018-08-31T16:32:27.821Z,19.4
2018-08-31T16:33:53.195Z,19.3
2018-08-31T16:34:52.407Z,19.3
2018-08-31T16:35:51.717Z,19.3
2018-08-31T16:36:51.037Z,19.3
2018-08-31T16:37:50.347Z,19.3
2018-08-31T16:38:50.356Z,19.2
2018-08-31T16:41:48.231Z,19.2
2018-08-31T16:42:47.557Z,19.1
2018-08-31T16:43:46.862Z,19.1
2018-08-31T16:44:46.173Z,19.1
2018-08-31T16:45:45.494Z,19.1
2018-08-31T16:46:44.803Z,19.1
2018-08-31T16:47:44.118Z,19
2018-08-31T16:48:43.546Z,19
2018-08-31T16:49:42.859Z,19
2018-08-31T16:51:41.963Z,19
2018-08-31T16:52:41.273Z,19
2018-08-31T16:55:39.148Z,19
2018-08-31T16:56:38.573Z,18.9
2018-08-31T16:57:37.885Z,18.9
2018-08-31T16:58:37.212Z,18.9
2018-08-31T16:59:36.826Z,18.9
2018-08-31T17:01:35.632Z,18.9
2018-08-31T17:02:34.859Z,18.9
2018-08-31T17:03:34.276Z,18.9
2018-08-31T17:05:33.081Z,18.9
2018-08-31T17:06:32.294Z,18.9
2018-08-31T17:07:31.603Z,18.8
2018-08-31T17:08:30.815Z,18.8
2018-08-31T17:10:29.642Z,18.8
2018-08-31T17:11:29.454Z,18.8
2018-08-31T17:12:28.159Z,18.8
2018-08-31T17:13:27.765Z,18.8
2018-08-31T17:14:27.080Z,18.8
2018-08-31T17:15:26.900Z,18.8
2018-08-31T17:17:25.493Z,18.7
2018-08-31T17:18:24.815Z,18.7
2018-08-31T17:18:55.336Z,18.7
2018-08-31T17:21:22.721Z,18.7
2018-08-31T17:25:19.979Z,18.6
2018-08-31T17:26:19.480Z,18.6
2018-08-31T17:30:16.958Z,18.6
2018-08-31T17:31:16.166Z,18.6
2018-08-31T17:33:15.160Z,18.6
2018-08-31T17:37:12.628Z,18.6
2018-08-31T17:39:11.236Z,18.6
2018-08-31T17:44:08.115Z,18.5
2018-08-31T17:45:07.532Z,18.4
2018-08-31T17:46:06.858Z,18.4
2018-08-31T17:47:06.174Z,18.4
2018-08-31T17:48:05.487Z,18.4
2018-08-31T17:49:04.583Z,18.4
2018-08-31T17:50:04.293Z,18.3
2018-08-31T17:51:03.601Z,18.3
2018-08-31T17:53:02.088Z,18.3
2018-08-31T17:54:01.716Z,18.2
2018-08-31T17:55:00.919Z,18.2
2018-08-31T17:56:00.234Z,18.2
2018-08-31T17:56:59.434Z,18.2
2018-08-31T17:58:58.242Z,18.1
2018-08-31T17:59:28.545Z,18.1
2018-08-31T17:59:59.065Z,18.1
2018-08-31T18:00:29.696Z,18.1
2018-08-31T18:01:00.116Z,18.1
2018-08-31T18:01:30.636Z,18.1
2018-08-31T18:02:55.905Z,18.1
2018-08-31T18:04:54.713Z,18
2018-08-31T18:05:53.916Z,18
2018-08-31T18:09:51.577Z,17.8
2018-08-31T18:10:21.880Z,17.8
2018-08-31T18:10:52.627Z,17.8
2018-08-31T18:11:23.250Z,17.8
2018-08-31T18:11:53.666Z,17.7
2018-08-31T18:12:24.295Z,17.7
2018-08-31T18:12:54.820Z,17.7
2018-08-31T18:13:25.560Z,17.7
2018-08-31T18:15:47.458Z,17.6
2018-08-31T18:18:45.341Z,17.5
2018-08-31T18:19:44.447Z,17.5
2018-08-31T18:20:44.166Z,17.4
2018-08-31T18:22:42.761Z,17.4
2018-08-31T18:23:41.975Z,17.3
2018-08-31T18:24:41.393Z,17.3
2018-08-31T18:25:40.835Z,17.2
2018-08-31T18:26:39.805Z,17.2
2018-08-31T18:27:39.221Z,17.2
2018-08-31T18:28:38.538Z,17.1
2018-08-31T18:29:37.853Z,17.1
2018-08-31T18:30:37.166Z,17
2018-08-31T18:32:41.604Z,17
2018-08-31T18:33:35.291Z,17
2018-08-31T18:34:34.492Z,16.9
2018-08-31T18:37:32.699Z,16.8
2018-08-31T18:38:31.903Z,16.8
2018-08-31T18:39:31.104Z,16.8
2018-08-31T18:40:30.575Z,16.7
2018-08-31T18:41:29.680Z,16.7
2018-08-31T18:42:29.496Z,16.7
2018-08-31T18:43:28.322Z,16.6
2018-08-31T18:44:28.142Z,16.6
2018-08-31T18:45:27.106Z,16.5
2018-08-31T18:48:25.299Z,16.4
2018-08-31T18:49:24.516Z,16.4
2018-08-31T18:50:23.721Z,16.3
2018-08-31T18:52:22.502Z,16.3
2018-08-31T18:54:21.120Z,16.2
2018-08-31T18:55:20.332Z,16.2
2018-08-31T18:56:19.654Z,16.1
2018-08-31T18:57:18.757Z,16.1
2018-08-31T18:58:18.187Z,16.1
2018-08-31T18:59:17.497Z,16
2018-08-31T19:00:16.707Z,16
2018-08-31T19:01:16.024Z,15.9
2018-08-31T19:03:14.723Z,15.9
2018-08-31T19:04:14.029Z,15.9
2018-08-31T19:05:13.355Z,15.8
2018-08-31T19:06:12.687Z,15.8
2018-08-31T19:07:11.903Z,15.8
2018-08-31T19:12:08.376Z,15.6
2018-08-31T19:13:07.689Z,15.6
2018-08-31T19:14:07.015Z,15.6
2018-08-31T19:16:06.018Z,15.5
2018-08-31T19:17:04.849Z,15.4
2018-08-31T19:21:02.320Z,15.3
2018-08-31T19:22:01.641Z,15.3
2018-08-31T19:23:00.744Z,15.2
2018-08-31T19:23:59.846Z,15.2
2018-08-31T19:24:59.824Z,15.1
2018-08-31T19:25:58.479Z,15.1
2018-08-31T19:26:58.110Z,15.1
2018-08-31T19:27:57.526Z,15
2018-08-31T19:28:56.836Z,15
2018-08-31T19:29:55.742Z,15
2018-08-31T19:31:54.242Z,15
2018-08-31T19:33:52.947Z,14.9
2018-08-31T19:34:52.258Z,14.9
2018-08-31T19:35:51.574Z,14.9
2018-08-31T19:36:50.893Z,14.8
2018-08-31T19:37:50.203Z,14.8
2018-08-31T19:38:49.420Z,14.8
2018-08-31T19:39:19.723Z,14.8
2018-08-31T19:40:47.829Z,14.7
2018-08-31T19:41:47.326Z,14.7
2018-08-31T19:42:46.644Z,14.6
2018-08-31T19:45:44.343Z,14.6
2018-08-31T19:46:43.967Z,14.5
2018-08-31T19:48:42.316Z,14.5
2018-08-31T19:49:12.952Z,14.5
2018-08-31T19:50:40.953Z,14.4
2018-08-31T19:51:11.585Z,14.4
2018-08-31T19:52:39.585Z,14.4
2018-08-31T19:53:10.212Z,14.4
2018-08-31T19:53:40.774Z,14.3
2018-08-31T19:54:37.910Z,14.3
2018-08-31T19:55:37.237Z,14.3
2018-08-31T19:58:34.831Z,14.2
2018-08-31T19:59:33.937Z,14.2
2018-08-31T20:01:32.644Z,14.1
2018-08-31T20:02:32.269Z,14.1
2018-08-31T20:05:29.933Z,14
2018-08-31T20:07:28.242Z,13.9
2018-08-31T20:08:27.957Z,13.9
2018-08-31T20:10:26.256Z,13.9
2018-08-31T20:11:25.361Z,13.9
2018-08-31T20:13:24.172Z,13.8
2018-08-31T20:14:23.484Z,13.8
2018-08-31T20:15:22.581Z,13.8
2018-08-31T20:16:22.338Z,13.7
2018-08-31T20:17:21.191Z,13.7
2018-08-31T20:18:20.507Z,13.7
2018-08-31T20:19:19.319Z,13.6
2018-08-31T20:20:18.754Z,13.6
2018-08-31T20:21:17.969Z,13.6
2018-08-31T20:22:17.292Z,13.5
2018-08-31T20:25:15.378Z,13.5
2018-08-31T20:26:14.196Z,13.5
2018-08-31T20:27:13.504Z,13.5
2018-08-31T20:28:12.821Z,13.5
2018-08-31T20:30:11.475Z,13.4
2018-08-31T20:31:10.691Z,13.4
2018-08-31T20:31:41.207Z,13.4
2018-08-31T20:32:11.615Z,13.3
2018-08-31T20:32:42.236Z,13.3
2018-08-31T20:33:12.975Z,13.3
2018-08-31T20:33:43.597Z,13.3
2018-08-31T20:35:07.858Z,13.3
2018-08-31T20:37:06.060Z,13.3
2018-08-31T20:38:05.374Z,13.2
2018-08-31T20:39:04.681Z,13.2
2018-08-31T20:40:03.894Z,13.2
2018-08-31T20:42:02.374Z,13.1
2018-08-31T20:42:33.003Z,13.1
2018-08-31T20:43:03.728Z,13.1
2018-08-31T20:43:33.932Z,13.1
2018-08-31T20:45:00.316Z,13.1
2018-08-31T20:45:59.542Z,13.1
2018-08-31T20:47:57.646Z,13.1
2018-08-31T20:48:57.360Z,13
2018-08-31T20:49:56.216Z,13
2018-08-31T20:50:55.632Z,13
2018-08-31T20:51:55.302Z,12.9
2018-08-31T20:52:54.082Z,12.9
2018-08-31T20:53:53.399Z,12.9
2018-08-31T20:55:51.999Z,12.9
2018-08-31T20:56:51.316Z,12.9
2018-08-31T20:58:49.514Z,12.9
2018-08-31T20:59:48.720Z,12.8
2018-08-31T21:00:48.044Z,12.8
2018-08-31T21:01:47.041Z,12.8
2018-08-31T21:02:46.357Z,12.8
2018-08-31T21:03:45.786Z,12.8
2018-08-31T21:04:44.996Z,12.8
2018-08-31T21:05:44.196Z,12.8
2018-08-31T21:06:43.616Z,12.7
2018-08-31T21:07:42.924Z,12.7
2018-08-31T21:08:42.133Z,12.7
2018-08-31T21:09:12.654Z,12.7
2018-08-31T21:09:43.451Z,12.7
2018-08-31T21:12:39.119Z,12.7
2018-08-31T21:14:37.214Z,12.6
2018-08-31T21:15:36.932Z,12.6
2018-08-31T21:16:35.816Z,12.6
2018-08-31T21:17:35.024Z,12.6
2018-08-31T21:18:34.437Z,12.6
2018-08-31T21:19:33.744Z,12.6
2018-08-31T21:20:32.666Z,12.6
2018-08-31T21:21:31.977Z,12.6
2018-08-31T21:22:31.405Z,12.6
2018-08-31T21:23:30.521Z,12.5
2018-08-31T21:24:29.629Z,12.5
2018-08-31T21:25:28.831Z,12.5
2018-08-31T21:26:28.152Z,12.5
2018-08-31T21:27:27.585Z,12.5
2018-08-31T21:28:26.496Z,12.5
2018-08-31T21:28:57.127Z,12.5
2018-08-31T21:30:25.014Z,12.5
2018-08-31T21:31:24.192Z,12.5
2018-08-31T21:33:22.955Z,12.5
2018-08-31T21:34:22.166Z,12.5
2018-08-31T21:35:21.488Z,12.5
2018-08-31T21:36:20.404Z,12.5
2018-08-31T21:37:19.723Z,12.5
2018-08-31T21:38:18.826Z,12.5
2018-08-31T21:40:17.416Z,12.5
2018-08-31T21:41:16.724Z,12.5
2018-08-31T21:42:16.465Z,12.5
2018-08-31T21:43:15.272Z,12.5
2018-08-31T21:44:14.589Z,12.5
2018-08-31T21:45:13.397Z,12.5
2018-08-31T21:46:12.708Z,12.5
2018-08-31T21:47:11.807Z,12.5
2018-08-31T21:48:11.132Z,12.5
2018-08-31T21:49:10.444Z,12.5
2018-08-31T21:50:09.652Z,12.5
2018-08-31T21:51:08.975Z,12.4
2018-08-31T21:52:08.286Z,12.5
2018-08-31T21:53:07.169Z,12.4
2018-08-31T21:54:06.267Z,12.4
2018-08-31T21:55:05.974Z,12.4
2018-08-31T21:56:04.832Z,12.5
2018-08-31T21:57:04.248Z,12.5
2018-08-31T21:58:03.567Z,12.5
2018-08-31T21:59:02.765Z,12.5
2018-08-31T22:00:02.075Z,12.5
2018-08-31T22:01:01.296Z,12.5
2018-08-31T22:02:00.403Z,12.5
2018-08-31T22:02:59.820Z,12.5
2018-08-31T22:03:59.038Z,12.5
2018-08-31T22:04:57.847Z,12.5
2018-08-31T22:05:57.169Z,12.5
2018-08-31T22:06:56.381Z,12.5
2018-08-31T22:07:55.807Z,12.5
2018-08-31T22:08:26.422Z,12.5
2018-08-31T22:08:56.664Z,12.5
2018-08-31T22:09:27.302Z,12.5
2018-08-31T22:09:57.717Z,12.5
2018-08-31T22:10:28.026Z,12.5
2018-08-31T22:11:52.683Z,12.5
2018-08-31T22:12:51.892Z,12.4
2018-08-31T22:13:50.990Z,12.4
2018-08-31T22:14:50.204Z,12.4
2018-08-31T22:16:49.037Z,12.4
2018-08-31T22:17:48.035Z,12.4
2018-08-31T22:18:47.033Z,12.4
2018-08-31T22:19:46.360Z,12.4
2018-08-31T22:20:45.672Z,12.3
2018-08-31T22:21:44.887Z,12.3
2018-08-31T22:22:44.204Z,12.3
2018-08-31T22:23:43.412Z,12.3
2018-08-31T22:24:42.509Z,12.3
2018-08-31T22:25:41.817Z,12.3
2018-08-31T22:26:41.024Z,12.3
2018-08-31T22:27:39.946Z,12.3
2018-08-31T22:28:39.156Z,12.2
2018-08-31T22:29:38.361Z,12.2
2018-08-31T22:30:37.575Z,12.2
2018-08-31T22:31:36.996Z,12.2
2018-08-31T22:32:36.200Z,12.2
2018-08-31T22:33:35.513Z,12.2
2018-08-31T22:34:34.796Z,12.1
2018-08-31T22:35:33.855Z,12.1
2018-08-31T22:36:33.061Z,12.1
2018-08-31T22:37:32.280Z,12.1
2018-08-31T22:38:31.498Z,12.1
2018-08-31T22:39:30.823Z,12
2018-08-31T22:40:30.035Z,12
2018-08-31T22:42:28.129Z,12
2018-08-31T22:43:27.539Z,12
2018-08-31T22:44:26.875Z,12
2018-08-31T22:46:25.187Z,12
2018-08-31T22:47:24.387Z,12
2018-08-31T22:48:23.802Z,12
2018-08-31T22:49:23.112Z,12